This is the latest recevied weather packets stored in our database for station/object DK1ZX-10. If no packets are shown the sender has not sent any weather packets the latest 10 day(s).
| Time | Temp. | Humidity | Pressure | Rain* | Wind** | Luminosity | Snow |
|---|---|---|---|---|---|---|---|
| 1777666158 | 10.56° C | 53% | 1025.6 hPa | - | - | - | - |
| 1777664958 | 11.67° C | 50% | 1025.5 hPa | - | - | - | - |
| 1777663758 | 11.67° C | 48% | 1025.4 hPa | - | - | - | - |
| 1777662558 | 13.89° C | 40% | 1025.4 hPa | - | - | - | - |
| 1777661358 | 15° C | 38% | 1025.2 hPa | - | - | - | - |
| 1777660158 | 15.56° C | 35% | 1025 hPa | - | - | - | - |
| 1777658958 | 16.67° C | 32% | 1024.9 hPa | - | - | - | - |
| 1777657758 | 17.22° C | 31% | 1024.8 hPa | - | - | - | - |
| 1777656558 | 17.78° C | 29% | 1024.8 hPa | - | - | - | - |
| 1777655358 | 17.78° C | 30% | 1024.8 hPa | - | - | - | - |
| 1777654158 | 18.33° C | 28% | 1024.9 hPa | - | - | - | - |
| 1777652958 | 18.89° C | 28% | 1025.1 hPa | - | - | - | - |
| 1777651757 | 18.89° C | 27% | 1025.1 hPa | - | - | - | - |
| 1777650557 | 19.44° C | 27% | 1025.3 hPa | - | - | - | - |
| 1777649357 | 19.44° C | 26% | 1025.3 hPa | - | - | - | - |
| 1777648157 | 19.44° C | 26% | 1025.6 hPa | - | - | - | - |
| 1777646957 | 20° C | 25% | 1025.7 hPa | - | - | - | - |
| 1777645757 | 20° C | 25% | 1025.9 hPa | - | - | - | - |
| 1777644557 | 20° C | 25% | 1026.1 hPa | - | - | - | - |
| 1777643357 | 20° C | 25% | 1026.3 hPa | - | - | - | - |
| 1777642157 | 19.44° C | 25% | 1026.6 hPa | - | - | - | - |
| 1777640957 | 19.44° C | 25% | 1026.7 hPa | - | - | - | - |
| 1777639757 | 19.44° C | 24% | 1027 hPa | - | - | - | - |
| 1777638557 | 18.89° C | 25% | 1027.2 hPa | - | - | - | - |
| 1777637357 | 18.89° C | 25% | 1027.5 hPa | - | - | - | - |
* Rain since midnight (hover to see other rain measurements)
** Current wind speed in m/s (hover to see current wind gust speed)